Time;durP1;ratioP1;P1;durP2;ratioP2;P2;SDS_P1;SDS_P2;PMS_P1;PMS_P2;Temp;Humidity;BMP_temperature;BMP_pressure;BME280_temperature;BME280_humidity;BME280_pressure;Samples;Min_cycle;Max_cycle;Signal;HPM_P1;HPM_P2
2023/02/18 00:08:38;;;;;;;12.70;5.70;;;10.10;99.90;;;;;;20471053;28;20474;-42
2023/02/18 00:18:39;;;;;;;23.98;8.27;;;10.10;99.90;;;;;;20475971;28;20062;-43
2023/02/18 00:28:41;;;;;;;18.35;9.77;;;10.20;99.90;;;;;;20480678;28;20044;-43
2023/02/18 00:38:54;;;;;;;22.52;12.05;;;10.20;99.90;;;;;;20488156;28;20042;-43
2023/02/18 00:48:55;;;;;;;23.50;11.23;;;10.00;99.90;;;;;;20488473;28;20050;-43
2023/02/18 00:58:56;;;;;;;30.98;14.23;;;9.80;99.90;;;;;;20486668;28;20039;-42
2023/02/18 01:08:57;;;;;;;30.40;15.30;;;9.80;99.90;;;;;;20485347;28;20072;-42
2023/02/18 01:18:58;;;;;;;28.23;12.95;;;9.60;99.90;;;;;;20483837;28;20479;-42
2023/02/18 01:29:00;;;;;;;27.63;13.23;;;9.50;99.90;;;;;;20482852;28;20051;-42
2023/02/18 01:39:01;;;;;;;28.20;14.57;;;9.50;99.90;;;;;;20489875;28;20046;-42
2023/02/18 01:49:02;;;;;;;33.28;13.77;;;9.50;99.90;;;;;;20497214;28;20486;-42
2023/02/18 01:59:08;;;;;;;33.67;15.32;;;9.40;99.90;;;;;;20492784;28;20036;-43
2023/02/18 02:09:13;;;;;;;27.35;14.20;;;9.40;99.90;;;;;;20470760;28;20732;-43
2023/02/18 02:19:49;;;;;;;37.50;17.33;;;9.40;99.90;;;;;;20489708;28;20045;-42
2023/02/18 02:30:17;;;;;;;33.47;17.33;;;9.50;99.90;;;;;;20504485;28;20043;-42
2023/02/18 02:40:42;;;;;;;34.45;15.70;;;9.50;99.90;;;;;;20490019;28;20038;-42
2023/02/18 02:50:51;;;;;;;38.42;17.15;;;9.50;99.90;;;;;;20482500;28;21372;-42
2023/02/18 03:01:12;;;;;;;37.67;15.07;;;9.60;99.90;;;;;;20482586;28;20031;-43
2023/02/18 03:11:16;;;;;;;25.83;14.50;;;9.70;99.90;;;;;;20478243;28;20494;-43
2023/02/18 03:21:24;;;;;;;31.17;12.70;;;9.80;99.90;;;;;;20471572;28;20036;-42
2023/02/18 03:31:28;;;;;;;25.90;12.18;;;9.90;99.90;;;;;;20465987;28;20039;-42
2023/02/18 03:41:29;;;;;;;21.30;8.90;;;9.90;99.90;;;;;;20480523;28;20042;-42
2023/02/18 03:51:31;;;;;;;9.48;4.55;;;9.80;99.90;;;;;;20478675;28;20040;-42
2023/02/18 04:01:32;;;;;;;6.22;2.78;;;9.80;99.90;;;;;;20471868;28;20038;-42
2023/02/18 04:11:36;;;;;;;7.57;3.50;;;9.70;99.90;;;;;;20462364;28;20042;-42
2023/02/18 04:21:37;;;;;;;8.65;4.28;;;9.80;99.90;;;;;;20466758;28;20089;-42
2023/02/18 04:31:38;;;;;;;6.55;3.47;;;9.90;99.90;;;;;;20455481;28;20355;-41
2023/02/18 04:41:39;;;;;;;8.55;4.45;;;9.80;99.90;;;;;;20464720;28;20085;-42
2023/02/18 04:51:40;;;;;;;5.03;3.10;;;9.80;99.90;;;;;;20470417;28;20050;-42
2023/02/18 05:01:41;;;;;;;7.55;3.80;;;9.90;99.90;;;;;;20464952;28;20182;-42
2023/02/18 05:11:42;;;;;;;7.55;3.10;;;10.00;99.90;;;;;;20468482;28;20035;-42
2023/02/18 05:21:44;;;;;;;10.98;4.80;;;10.00;99.90;;;;;;20481080;28;20030;-42
2023/02/18 05:31:45;;;;;;;8.25;5.55;;;10.10;99.90;;;;;;20488050;28;20050;-42
2023/02/18 05:41:46;;;;;;;10.80;5.13;;;10.20;99.90;;;;;;20475192;28;20066;-41
2023/02/18 05:51:47;;;;;;;8.27;4.60;;;10.20;99.90;;;;;;20473020;28;20040;-42
2023/02/18 06:01:48;;;;;;;13.63;6.90;;;10.30;99.90;;;;;;20478585;28;20046;-42
2023/02/18 06:11:49;;;;;;;15.77;6.65;;;10.20;99.90;;;;;;20476934;28;20054;-42
2023/02/18 06:21:50;;;;;;;7.45;3.70;;;10.30;99.90;;;;;;20478736;28;20041;-42
2023/02/18 06:31:51;;;;;;;10.88;5.38;;;10.30;99.90;;;;;;20484524;28;20050;-41
2023/02/18 06:41:52;;;;;;;10.10;5.63;;;10.30;99.90;;;;;;20475012;28;20046;-42
2023/02/18 06:51:53;;;;;;;6.43;3.58;;;10.30;99.90;;;;;;20475393;28;20806;-42
2023/02/18 07:01:54;;;;;;;15.80;6.28;;;10.20;99.90;;;;;;20475395;28;20504;-42
2023/02/18 07:11:55;;;;;;;8.57;5.20;;;10.20;99.90;;;;;;20474334;28;20042;-42
2023/02/18 07:21:56;;;;;;;9.43;3.47;;;10.20;99.90;;;;;;20471089;28;20059;-42
2023/02/18 07:31:57;;;;;;;6.43;2.90;;;10.30;99.90;;;;;;20475368;28;20050;-42
2023/02/18 07:41:59;;;;;;;6.07;2.42;;;10.20;99.90;;;;;;20472371;28;20202;-42
2023/02/18 07:52:00;;;;;;;4.22;1.90;;;10.10;99.90;;;;;;20473640;28;20051;-42
2023/02/18 08:02:01;;;;;;;11.00;3.60;;;10.10;99.90;;;;;;20483223;28;20574;-42
2023/02/18 08:12:03;;;;;;;4.22;1.92;;;10.10;99.90;;;;;;20472674;28;20042;-41
2023/02/18 08:22:04;;;;;;;12.85;2.72;;;9.90;99.90;;;;;;20472441;28;20081;-42
2023/02/18 08:32:05;;;;;;;5.53;1.95;;;9.80;99.90;;;;;;20476939;28;20035;-42
2023/02/18 08:42:06;;;;;;;6.13;2.22;;;9.80;99.90;;;;;;20481011;28;20051;-42
2023/02/18 08:52:07;;;;;;;9.85;3.33;;;9.80;99.90;;;;;;20485431;28;20050;-42
2023/02/18 09:02:13;;;;;;;4.97;1.33;;;9.90;99.90;;;;;;20492078;28;20057;-42
2023/02/18 09:12:14;;;;;;;5.88;2.25;;;9.90;99.90;;;;;;20493250;28;20039;-42
2023/02/18 09:22:15;;;;;;;4.25;1.58;;;10.00;99.90;;;;;;20470016;28;20050;-42
2023/02/18 09:32:17;;;;;;;13.65;2.88;;;10.10;99.90;;;;;;20488413;28;20034;-42
2023/02/18 09:42:22;;;;;;;3.47;1.48;;;10.10;99.90;;;;;;20484546;28;20066;-43
2023/02/18 09:52:34;;;;;;;6.10;2.17;;;10.30;99.90;;;;;;20478495;28;20051;-42
2023/02/18 10:02:37;;;;;;;6.68;2.80;;;10.30;99.90;;;;;;20441562;28;20048;-42
2023/02/18 10:12:39;;;;;;;6.10;2.17;;;10.50;98.10;;;;;;20481121;28;21489;-42
2023/02/18 10:22:40;;;;;;;6.28;1.48;;;10.50;97.30;;;;;;20469483;28;20536;-43
2023/02/18 10:32:45;;;;;;;3.22;1.52;;;10.60;97.10;;;;;;20488305;28;20478;-43
2023/02/18 10:43:27;;;;;;;3.63;1.67;;;10.70;98.60;;;;;;20483734;28;20043;-43
2023/02/18 10:53:36;;;;;;;2.75;1.10;;;10.90;98.00;;;;;;20484340;28;20706;-42
2023/02/18 11:03:51;;;;;;;5.60;1.95;;;11.00;93.30;;;;;;20485585;28;20039;-42
2023/02/18 11:13:54;;;;;;;5.13;1.60;;;11.20;95.10;;;;;;20486652;28;20061;-42
2023/02/18 11:23:57;;;;;;;2.83;1.33;;;11.40;90.40;;;;;;20489085;28;20039;-43
2023/02/18 11:34:02;;;;;;;3.10;1.70;;;11.50;90.00;;;;;;20494228;28;20046;-43
2023/02/18 11:44:15;;;;;;;3.53;1.35;;;11.40;92.40;;;;;;20481623;28;20050;-43
2023/02/18 11:54:36;;;;;;;2.78;0.95;;;11.50;88.70;;;;;;20473307;28;20491;-43
2023/02/18 12:04:46;;;;;;;3.13;1.13;;;11.70;85.80;;;;;;20479627;28;20086;-43
2023/02/18 12:14:47;;;;;;;2.83;0.73;;;11.90;72.60;;;;;;20463947;28;20043;-43
2023/02/18 12:25:16;;;;;;;2.35;1.00;;;11.90;70.80;;;;;;20487317;28;20434;-43
2023/02/18 12:35:58;;;;;;;2.03;0.63;;;12.00;67.10;;;;;;20487773;28;20049;-43
2023/02/18 12:46:20;;;;;;;12.18;1.88;;;12.20;59.40;;;;;;20457729;28;21483;-43
2023/02/18 12:56:51;;;;;;;2.55;1.30;;;12.90;48.20;;;;;;20487245;28;20787;-43
2023/02/18 13:07:11;;;;;;;2.15;0.70;;;12.50;46.60;;;;;;20485385;28;20058;-43
2023/02/18 13:17:13;;;;;;;1.88;0.70;;;12.30;52.60;;;;;;20492126;28;21124;-43
2023/02/18 13:27:20;;;;;;;2.20;0.77;;;12.50;52.90;;;;;;20482159;28;20043;-43
2023/02/18 13:37:27;;;;;;;2.85;0.55;;;13.00;42.40;;;;;;20483235;28;20036;-44
2023/02/18 13:47:34;;;;;;;5.97;1.17;;;13.20;34.30;;;;;;20480112;28;20050;-43
2023/02/18 13:57:37;;;;;;;2.87;1.07;;;13.00;34.40;;;;;;20475685;28;20775;-43
2023/02/18 14:08:09;;;;;;;5.38;1.33;;;13.20;33.70;;;;;;20478877;28;20458;-43
2023/02/18 14:18:13;;;;;;;1.58;1.00;;;13.20;29.40;;;;;;20481159;28;20035;-43
2023/02/18 14:28:33;;;;;;;3.88;0.60;;;13.20;30.00;;;;;;20483553;28;20043;-43
2023/02/18 14:38:58;;;;;;;3.28;0.80;;;13.20;30.20;;;;;;20484981;28;20043;-44
2023/02/18 14:49:10;;;;;;;3.15;1.23;;;13.40;30.30;;;;;;20480949;28;20189;-44
2023/02/18 14:59:13;;;;;;;1.90;0.77;;;13.20;30.00;;;;;;20476703;28;20530;-43
2023/02/18 15:09:18;;;;;;;9.43;1.85;;;12.90;38.30;;;;;;20474794;28;20062;-43
2023/02/18 15:19:24;;;;;;;1.63;0.80;;;12.70;40.80;;;;;;20477396;28;20035;-44
2023/02/18 15:29:28;;;;;;;4.43;1.27;;;12.60;41.80;;;;;;20481736;28;22301;-43
2023/02/18 15:39:31;;;;;;;6.72;1.58;;;12.40;42.00;;;;;;20481266;28;20038;-43
2023/02/18 15:49:35;;;;;;;1.50;0.70;;;12.20;46.30;;;;;;20478895;28;20042;-44
2023/02/18 15:59:44;;;;;;;5.93;1.45;;;12.10;50.40;;;;;;20478530;28;20050;-43
2023/02/18 16:09:46;;;;;;;2.85;1.00;;;12.00;55.10;;;;;;20480479;28;20042;-43
2023/02/18 16:19:50;;;;;;;4.30;2.05;;;11.80;62.20;;;;;;20447216;28;20067;-44
2023/02/18 16:29:51;;;;;;;12.65;3.33;;;11.70;61.50;;;;;;20475857;28;20054;-43
2023/02/18 16:39:54;;;;;;;5.55;1.45;;;11.60;67.40;;;;;;20431283;28;20478;-44
2023/02/18 16:49:57;;;;;;;8.95;2.25;;;11.50;74.60;;;;;;20482751;28;20054;-43
2023/02/18 16:59:58;;;;;;;4.75;1.58;;;11.40;78.20;;;;;;20487812;28;20038;-43
2023/02/18 17:09:59;;;;;;;4.70;1.65;;;11.30;81.60;;;;;;20492998;28;20052;-43
2023/02/18 17:20:00;;;;;;;11.02;2.80;;;11.10;91.10;;;;;;20493273;28;20038;-43
2023/02/18 17:30:01;;;;;;;3.50;1.60;;;11.00;94.50;;;;;;20491651;28;20483;-43
2023/02/18 17:40:02;;;;;;;10.30;2.30;;;11.00;95.90;;;;;;20480095;28;20066;-43
2023/02/18 17:50:04;;;;;;;6.05;2.75;;;10.90;99.90;;;;;;20496643;28;20581;-44
2023/02/18 18:00:06;;;;;;;14.18;3.30;;;10.90;99.90;;;;;;20488513;28;20529;-43
2023/02/18 18:10:08;;;;;;;8.88;3.40;;;10.70;99.90;;;;;;20491980;28;20050;-43
2023/02/18 18:20:09;;;;;;;9.32;3.75;;;10.50;99.90;;;;;;20487789;28;20513;-43
2023/02/18 18:30:11;;;;;;;14.15;5.15;;;10.40;99.90;;;;;;20490627;28;20038;-43
2023/02/18 18:40:13;;;;;;;11.98;4.25;;;10.30;99.90;;;;;;20488148;28;20059;-43
2023/02/18 18:50:15;;;;;;;10.40;3.47;;;10.30;99.90;;;;;;20483028;28;20042;-43
2023/02/18 19:00:19;;;;;;;16.10;4.93;;;10.30;99.90;;;;;;20481717;28;20038;-43
2023/02/18 19:10:20;;;;;;;12.88;4.75;;;10.40;99.90;;;;;;20481973;28;20052;-42
2023/02/18 19:20:25;;;;;;;10.77;4.93;;;10.40;99.90;;;;;;20477930;28;20039;-42
2023/02/18 19:30:29;;;;;;;9.55;4.90;;;10.60;99.90;;;;;;20493140;28;20043;-43
2023/02/18 19:40:30;;;;;;;9.95;4.97;;;10.60;99.90;;;;;;20489643;28;20066;-43
2023/02/18 19:50:31;;;;;;;9.80;4.95;;;10.60;99.90;;;;;;20486871;28;20054;-43
2023/02/18 20:00:32;;;;;;;10.52;5.00;;;10.50;99.90;;;;;;20492868;28;20042;-42
2023/02/18 20:10:33;;;;;;;11.45;3.42;;;10.50;99.90;;;;;;20489894;28;20039;-43
2023/02/18 20:20:34;;;;;;;8.48;3.45;;;10.30;99.90;;;;;;20475256;28;20046;-43
2023/02/18 20:30:35;;;;;;;5.78;3.35;;;10.30;99.90;;;;;;20486235;28;20043;-42
2023/02/18 20:40:36;;;;;;;9.55;3.75;;;10.20;99.90;;;;;;20485986;28;20049;-41
2023/02/18 20:50:37;;;;;;;10.77;4.97;;;10.20;99.90;;;;;;20496427;28;20537;-41
2023/02/18 21:00:38;;;;;;;7.07;3.72;;;10.10;99.90;;;;;;20503088;28;20129;-41
2023/02/18 21:10:39;;;;;;;12.90;5.25;;;10.00;99.90;;;;;;20504232;28;20047;-41
2023/02/18 21:20:40;;;;;;;17.15;5.25;;;10.10;99.90;;;;;;20505917;28;20054;-41
2023/02/18 21:30:43;;;;;;;13.15;4.88;;;10.10;99.90;;;;;;20496569;28;20054;-42
2023/02/18 21:40:45;;;;;;;15.93;7.38;;;10.10;99.90;;;;;;20503836;28;20217;-42
2023/02/18 21:50:47;;;;;;;14.52;5.45;;;10.10;99.90;;;;;;20500953;28;20407;-42
2023/02/18 22:00:56;;;;;;;10.43;5.53;;;10.00;99.90;;;;;;20513987;28;20478;-42
2023/02/18 22:10:57;;;;;;;17.52;6.25;;;10.10;99.90;;;;;;20504924;28;20612;-42
2023/02/18 22:20:58;;;;;;;6.68;3.33;;;10.10;99.90;;;;;;20508724;28;20047;-42
2023/02/18 22:31:04;;;;;;;12.50;4.32;;;10.10;99.90;;;;;;20504042;28;20061;-42
2023/02/18 22:41:07;;;;;;;10.27;3.00;;;10.10;99.90;;;;;;20496661;28;20066;-42
2023/02/18 22:51:11;;;;;;;11.07;3.22;;;10.10;99.90;;;;;;20517681;28;20051;-42
2023/02/18 23:01:21;;;;;;;14.68;4.28;;;10.10;99.90;;;;;;20493892;28;20034;-42
2023/02/18 23:11:22;;;;;;;7.18;3.15;;;10.10;99.90;;;;;;20492987;28;20053;-43
2023/02/18 23:21:23;;;;;;;13.45;3.10;;;10.10;99.90;;;;;;20496380;28;20237;-42
2023/02/18 23:31:26;;;;;;;15.00;4.43;;;10.10;99.90;;;;;;20490199;28;25243;-42
2023/02/18 23:41:28;;;;;;;8.90;2.65;;;10.00;99.90;;;;;;20485596;28;20437;-42
2023/02/18 23:51:29;;;;;;;9.00;3.05;;;10.00;99.90;;;;;;20490828;28;20531;-43
